ADDS METAR Data INFO
IDs: Format: Raw Decoded Include TAF

Data at: 0212 UTC 17 Aug 2018

PASX 170156Z AUTO 32003KT 10SM BKN075 14/07 A3002 RMK AO2 SLP176 T01440072
PASX 170056Z AUTO 32004KT 10SM OVC065 14/07 A3002 RMK AO2 SLP175 T01390067
PASX 162356Z AUTO 27008KT 10SM OVC065 14/08 A3002 RMK AO2 SLP175 60001 T01440078 10150 20106 55001
PASX 162256Z AUTO 25007KT 10SM OVC042 14/07 A3002 RMK AO2 SLP174 T01440072
PASX 162156Z AUTO 31004KT 10SM OVC050 14/08 A3002 RMK AO2 SLP175 T01390078
PASX 162056Z AUTO 25006KT 10SM FEW027 BKN046 13/09 A3002 RMK AO2 SLP176 60001 T01330089 53000
PASX 161956Z AUTO 30005KT 10SM FEW021 SCT042 SCT090 13/09 A3002 RMK AO2 RAE03 SLP176 P0000 T01280089
PASX 161950Z AUTO 25004KT 10SM FEW017 SCT042 BKN090 13/08 A3002 RMK AO2 RAE03 P0000
PASX 161936Z AUTO 24005KT 10SM SCT017 BKN024 BKN095 13/08 A3002 RMK AO2 RAE03 P0000
PASX 161856Z AUTO 30003KT 10SM -RA FEW040 BKN055 12/09 A3002 RMK AO2 RAB16 SLP176 P0001 T01220094
PASX 161756Z AUTO 00000KT 10SM OVC095 11/09 A3001 RMK AO2 SLP174 60000 T01110094 10111 20083 51004
PASX 161656Z AUTO 00000KT 10SM CLR 09/09 A3001 RMK AO2 SLP173 T00940089
PASX 161556Z AUTO 09004KT 10SM FEW044 08/08 A3001 RMK AO2 SLP172 T00830083
PASX 161456Z AUTO 00000KT 10SM BKN042 OVC060 09/08 A3000 RMK AO2 SLP169 60000 T00890083 51001
PASX 161356Z AUTO 14003KT 10SM OVC040 09/08 A3000 RMK AO2 RAE1258 SLP169 P0000 T00890083
PASX 161325Z AUTO 09003KT 10SM FEW027 BKN038 OVC050 09/08 A3000 RMK AO2 RAE1258 P0000
PASX 161256Z AUTO 00000KT 10SM -RA BKN025 BKN038 OVC048 09/08 A3000 RMK AO2 RAB43 SLP168 P0000 T00890083
PASX 161156Z AUTO 16003KT 10SM FEW045 09/09 A3000 RMK AO2 RAB07E46 SLP168 P0000 60011 70016 T00940089 10106 20094 58001
PASX 161056Z AUTO 00000KT 10SM FEW023 BKN039 OVC047 09/09 A3000 RMK AO2 RAE30 SLP168 P0000 T00940089
PASX 160956Z AUTO 17003KT 10SM -RA BKN025 OVC038 09/09 A3000 RMK AO2 SLP169 P0003 T00940089
PASX 160856Z AUTO 00000KT 10SM -RA FEW020 OVC040 10/09 A3000 RMK AO2 SLP169 P0002 60008 T01000094 401610056 52007
PASX 160756Z AUTO 00000KT 10SM -RA OVC041 10/09 A2999 RMK AO2 SLP166 P0002 T01000094
PASX 160656Z AUTO 00000KT 10SM -RA BKN033 OVC043 11/09 A2999 RMK AO2 SLP164 P0004 T01060094
PASX 160556Z AUTO 13003KT 6SM RA BR OVC035 11/10 A2998 RMK AO2 RAE18B37 SLP162 P0003 60005 T01060100 10161 20106 53007
PASX 160456Z AUTO 21003KT 10SM -RA BKN031 OVC039 12/09 A2997 RMK AO2 RAE11B34 SLP158 P0000 T01170089
PASX 160430Z AUTO 26004KT 10SM BKN029 OVC045 12/09 A2997 RMK AO2 RAE11 P0000
PASX 160356Z AUTO 31004KT 10SM -RA OVC031 12/09 A2996 RMK AO2 RAE00B41 SLP156 P0000 T01170089
PASX 151856Z AUTO 25007KT 10SM CLR 13/07 A2996 RMK AO2 SLP154 T01330067
PASX 151756Z AUTO VRB04KT 10SM CLR 13/07 A2995 RMK AO2 SLP152 T01280067 10128 20056 51011
PASX 151656Z AUTO 00000KT 10SM CLR 11/07 A2994 RMK AO2 SLP150 T01110067
PASX 151556Z AUTO 00000KT 10SM CLR 08/06 A2993 RMK AO2 SLP146 T00830061
PASX 151456Z AUTO 00000KT 10SM CLR 06/04 A2992 RMK AO2 SLP142 T00560039 53007